createdAt,value
2018-11-20T00:00:23.000Z,15.17
2018-11-20T00:03:30.040Z,16.23
2018-11-20T00:06:19.397Z,16.10
2018-11-20T00:09:06.547Z,15.90
2018-11-20T00:11:53.542Z,16.33
2018-11-20T00:14:45.194Z,16.83
2018-11-20T00:17:32.978Z,16.33
2018-11-20T00:20:27.975Z,16.60
2018-11-20T00:23:25.926Z,16.63
2018-11-20T00:26:23.290Z,17.20
2018-11-20T00:29:23.763Z,16.83
2018-11-20T00:32:12.172Z,17.23
2018-11-20T00:35:13.682Z,17.20
2018-11-20T00:38:06.122Z,18.73
2018-11-20T00:40:50.397Z,17.70
2018-11-20T00:43:33.464Z,18.73
2018-11-20T00:46:47.749Z,18.77
2018-11-20T00:49:54.123Z,18.70
2018-11-20T00:53:03.332Z,18.67
2018-11-20T00:56:20.386Z,18.50
2018-11-20T00:59:11.641Z,18.13
2018-11-20T01:01:59.335Z,19.77
2018-11-20T01:04:58.907Z,19.43
2018-11-20T01:07:46.460Z,19.07
2018-11-20T01:10:33.420Z,18.97
2018-11-20T01:13:21.181Z,18.30
2018-11-20T01:16:08.952Z,18.37
2018-11-20T01:18:57.757Z,19.23
2018-11-20T01:21:47.027Z,20.30
2018-11-20T01:24:54.213Z,18.47
2018-11-20T01:27:52.435Z,21.07
2018-11-20T01:30:56.193Z,19.03
2018-11-20T01:33:43.622Z,20.37
2018-11-20T01:36:33.435Z,19.93
2018-11-20T01:39:40.029Z,18.40
2018-11-20T01:42:27.742Z,20.43
2018-11-20T01:45:15.009Z,20.57
2018-11-20T01:48:12.977Z,19.60
2018-11-20T01:51:02.523Z,20.20
2018-11-20T01:54:09.070Z,19.70
2018-11-20T01:56:59.859Z,19.73
2018-11-20T01:59:53.826Z,20.37
2018-11-20T02:02:54.711Z,21.43
2018-11-20T02:05:47.901Z,22.00
2018-11-20T02:08:45.169Z,20.70
2018-11-20T02:11:37.214Z,20.53
2018-11-20T02:14:23.136Z,19.93
2018-11-20T02:17:16.379Z,19.27
2018-11-20T02:20:07.316Z,19.47
2018-11-20T02:23:01.603Z,19.23
2018-11-20T02:25:56.219Z,21.50
2018-11-20T02:28:49.789Z,20.77
2018-11-20T02:31:38.239Z,18.63
2018-11-20T02:34:21.127Z,20.47
2018-11-20T02:36:58.072Z,20.80
2018-11-20T02:39:45.711Z,18.57
2018-11-20T02:42:53.241Z,19.10
2018-11-20T02:45:43.007Z,19.67
2018-11-20T02:48:31.776Z,18.33
2018-11-20T02:51:18.668Z,20.00
2018-11-20T02:54:02.472Z,18.93
2018-11-20T02:56:45.122Z,19.13
2018-11-20T02:59:40.477Z,19.00
2018-11-20T03:02:29.316Z,20.63
2018-11-20T03:05:17.492Z,18.57
2018-11-20T03:08:06.001Z,19.43
2018-11-20T03:11:07.329Z,18.87
2018-11-20T03:13:54.268Z,18.23
2018-11-20T03:16:54.819Z,20.00
2018-11-20T03:19:42.036Z,19.27
2018-11-20T03:22:41.154Z,19.10
2018-11-20T03:26:02.160Z,18.87
2018-11-20T03:29:03.315Z,17.53
2018-11-20T03:31:42.753Z,19.00
2018-11-20T03:34:44.546Z,19.20
2018-11-20T03:37:44.987Z,19.37
2018-11-20T03:40:44.146Z,17.90
2018-11-20T03:43:41.716Z,18.80
2018-11-20T03:46:30.419Z,20.00
2018-11-20T03:49:19.574Z,18.70
2018-11-20T03:52:02.555Z,19.40
2018-11-20T03:54:53.312Z,17.73
2018-11-20T03:57:42.083Z,17.57
2018-11-20T04:00:40.284Z,18.70
2018-11-20T04:03:32.019Z,19.33
2018-11-20T04:06:23.297Z,19.50
2018-11-20T04:09:30.702Z,18.67
2018-11-20T04:12:19.567Z,18.33
2018-11-20T04:15:09.383Z,18.53
2018-11-20T04:18:00.835Z,18.43
2018-11-20T04:20:57.092Z,19.13
2018-11-20T04:23:46.335Z,16.63
2018-11-20T04:26:46.679Z,18.70
2018-11-20T04:29:35.818Z,19.33
2018-11-20T04:32:17.406Z,17.87
2018-11-20T04:35:00.934Z,17.47
2018-11-20T04:38:03.660Z,17.93
2018-11-20T04:41:03.629Z,19.53
2018-11-20T04:43:50.276Z,18.00
2018-11-20T04:46:31.765Z,18.30
2018-11-20T04:49:22.426Z,17.40
2018-11-20T04:52:25.091Z,19.03
2018-11-20T04:55:23.443Z,18.20
2018-11-20T04:58:25.420Z,18.17
2018-11-20T05:01:17.699Z,17.50
2018-11-20T05:04:07.202Z,19.00
2018-11-20T05:06:58.744Z,20.20
2018-11-20T05:09:50.800Z,18.97
2018-11-20T05:12:43.960Z,19.67
2018-11-20T05:15:31.736Z,18.40
2018-11-20T05:18:31.508Z,18.57
2018-11-20T05:21:18.358Z,18.77
2018-11-20T05:24:16.330Z,18.80
2018-11-20T05:27:12.769Z,18.60
2018-11-20T05:30:05.138Z,18.43
2018-11-20T05:32:52.740Z,18.67
2018-11-20T05:35:42.355Z,18.40
2018-11-20T05:38:40.133Z,17.63
2018-11-20T05:41:21.797Z,19.03
2018-11-20T05:44:21.981Z,19.47
2018-11-20T05:47:09.438Z,18.23
2018-11-20T05:50:06.506Z,18.17
2018-11-20T05:53:06.302Z,19.23
2018-11-20T05:55:57.119Z,18.57
2018-11-20T05:58:49.550Z,18.63
2018-11-20T06:01:41.067Z,19.30
2018-11-20T06:04:24.605Z,18.30
2018-11-20T06:07:20.005Z,18.50
2018-11-20T06:10:12.600Z,19.73
2018-11-20T06:12:54.147Z,18.77
2018-11-20T06:15:50.780Z,19.57
2018-11-20T06:18:57.445Z,19.13
2018-11-20T06:21:54.488Z,18.57
2018-11-20T06:24:50.553Z,20.13
2018-11-20T06:27:52.073Z,19.00
2018-11-20T06:30:39.510Z,18.93
2018-11-20T06:33:38.424Z,19.37
2018-11-20T06:36:27.774Z,18.50
2018-11-20T06:39:22.220Z,19.27
2018-11-20T06:42:18.366Z,18.27
2018-11-20T06:45:06.199Z,19.40
2018-11-20T06:47:56.368Z,20.03
2018-11-20T06:50:43.616Z,20.33
2018-11-20T06:53:31.338Z,18.97
2018-11-20T06:56:21.484Z,18.17
2018-11-20T06:59:09.119Z,19.83
2018-11-20T07:01:57.558Z,19.47
2018-11-20T07:04:48.606Z,19.17
2018-11-20T07:07:46.494Z,18.37
2018-11-20T07:10:39.835Z,19.57
2018-11-20T07:13:52.630Z,18.07
2018-11-20T07:16:56.227Z,18.97
2018-11-20T07:20:05.991Z,19.30
2018-11-20T07:22:54.119Z,18.43
2018-11-20T07:28:54.626Z,19.23
2018-11-20T07:31:42.165Z,18.90
2018-11-20T07:34:26.231Z,18.03
2018-11-20T07:37:15.167Z,18.97
2018-11-20T07:40:02.014Z,18.33
2018-11-20T07:42:51.802Z,19.27
2018-11-20T07:45:39.653Z,17.13
2018-11-20T07:48:27.473Z,18.53
2018-11-20T07:51:14.377Z,19.30
2018-11-20T07:54:02.955Z,19.30
2018-11-20T07:56:51.518Z,18.73
2018-11-20T07:59:53.500Z,18.63
2018-11-20T08:02:50.899Z,18.83
2018-11-20T08:05:33.592Z,18.97
2018-11-20T08:08:29.920Z,19.87
2018-11-20T08:11:20.215Z,19.53
2018-11-20T08:14:12.632Z,18.03
2018-11-20T08:17:00.918Z,18.17
2018-11-20T08:19:51.702Z,17.67
2018-11-20T08:23:00.986Z,18.23
2018-11-20T08:25:48.100Z,19.23
2018-11-20T08:28:49.206Z,18.33
2018-11-20T08:31:38.879Z,17.77
2018-11-20T08:34:25.026Z,18.70
2018-11-20T08:37:23.141Z,18.13
2018-11-20T08:40:16.356Z,19.73
2018-11-20T08:43:05.693Z,18.77
2018-11-20T08:45:52.569Z,19.53
2018-11-20T08:48:40.024Z,19.13
2018-11-20T08:51:30.734Z,19.70
2018-11-20T08:54:26.685Z,19.33
2018-11-20T08:57:15.890Z,17.97
2018-11-20T09:00:07.102Z,19.17
2018-11-20T09:03:04.749Z,18.80
2018-11-20T09:06:03.546Z,20.20
2018-11-20T09:08:50.924Z,18.60
2018-11-20T09:11:39.733Z,18.03
2018-11-20T09:14:43.678Z,19.57
2018-11-20T09:17:32.084Z,19.37
2018-11-20T09:20:19.845Z,19.20
2018-11-20T09:23:10.820Z,20.80
2018-11-20T09:26:03.725Z,20.30
2018-11-20T09:28:51.365Z,19.93
2018-11-20T09:31:48.083Z,17.93
2018-11-20T09:38:34.773Z,23.17
2018-11-20T09:41:39.255Z,18.33
2018-11-20T09:45:15.251Z,18.73
2018-11-20T09:48:33.632Z,20.27
2018-11-20T09:51:46.740Z,21.43
2018-11-20T09:54:47.395Z,19.30
2018-11-20T09:57:35.931Z,20.80
2018-11-20T10:00:35.755Z,20.37
2018-11-20T10:03:26.834Z,24.70
2018-11-20T10:06:29.820Z,21.03
2018-11-20T10:09:20.545Z,20.23
2018-11-20T10:12:08.893Z,20.63
2018-11-20T10:14:59.329Z,21.00
2018-11-20T10:18:02.000Z,19.17
2018-11-20T10:20:58.025Z,20.17
2018-11-20T10:23:53.929Z,20.07
2018-11-20T10:26:52.098Z,21.67
2018-11-20T10:29:45.092Z,19.53
2018-11-20T10:32:48.553Z,19.67
2018-11-20T10:35:35.609Z,20.67
2018-11-20T10:38:40.477Z,23.60
2018-11-20T10:41:31.703Z,22.00
2018-11-20T10:44:26.330Z,23.00
2018-11-20T10:47:17.100Z,21.30
2018-11-20T10:50:04.803Z,21.47
2018-11-20T10:52:51.541Z,20.37
2018-11-20T10:55:29.742Z,23.57
2018-11-20T10:58:16.726Z,20.87
2018-11-20T11:01:03.949Z,21.57
2018-11-20T11:03:51.120Z,24.33
2018-11-20T11:06:49.462Z,23.67
2018-11-20T11:09:40.542Z,20.90
2018-11-20T11:12:32.895Z,22.87
2018-11-20T11:15:24.048Z,22.27
2018-11-20T11:18:30.996Z,20.33
2018-11-20T11:21:21.807Z,20.87
2018-11-20T11:24:14.736Z,21.87
2018-11-20T11:27:15.212Z,27.33
2018-11-20T11:30:31.783Z,22.93
2018-11-20T11:33:31.010Z,22.23
2018-11-20T11:36:39.156Z,20.77
2018-11-20T11:39:31.353Z,21.77
2018-11-20T11:42:39.149Z,19.97
2018-11-20T11:45:31.373Z,20.23
2018-11-20T11:48:23.253Z,22.53
2018-11-20T11:51:23.730Z,20.17
2018-11-20T11:54:06.919Z,21.93
2018-11-20T11:56:55.299Z,19.77
2018-11-20T11:59:51.631Z,21.00
2018-11-20T12:05:39.409Z,19.93
2018-11-20T12:08:35.870Z,19.70
2018-11-20T12:11:27.883Z,19.30
2018-11-20T12:14:16.846Z,19.00
2018-11-20T12:17:13.294Z,20.30
2018-11-20T12:19:54.287Z,19.50
2018-11-20T12:22:47.298Z,21.17
2018-11-20T12:25:47.597Z,19.27
2018-11-20T12:28:41.372Z,21.53
2018-11-20T12:31:28.730Z,20.13
2018-11-20T12:34:35.558Z,21.30
2018-11-20T12:37:28.822Z,21.33
2018-11-20T12:40:35.799Z,20.40
2018-11-20T12:43:35.633Z,20.40
2018-11-20T12:57:14.953Z,21.50
2018-11-20T13:15:51.498Z,17.47
2018-11-20T13:21:04.718Z,18.23
2018-11-20T13:26:19.148Z,17.10
2018-11-20T13:29:07.913Z,17.53
2018-11-20T13:40:28.647Z,17.03
2018-11-20T13:43:03.797Z,15.47
2018-11-20T13:48:19.265Z,15.80
2018-11-20T13:53:32.710Z,15.70
2018-11-20T13:58:47.179Z,15.83
2018-11-20T14:04:11.894Z,14.37
2018-11-20T14:06:49.149Z,15.10
2018-11-20T14:12:03.925Z,15.00
2018-11-20T14:17:20.521Z,15.07
2018-11-20T14:20:02.014Z,14.53
2018-11-20T14:23:10.246Z,13.17
2018-11-20T14:26:12.865Z,14.00
2018-11-20T14:51:12.365Z,20.80
2018-11-20T14:54:07.036Z,13.40
2018-11-20T14:59:22.057Z,13.23
2018-11-20T15:05:20.294Z,12.17
2018-11-20T15:08:28.945Z,12.43
2018-11-20T15:11:27.561Z,12.40
2018-11-20T15:14:36.483Z,14.00
2018-11-20T15:28:21.053Z,13.63
2018-11-20T15:31:11.990Z,11.90
2018-11-20T15:33:58.017Z,12.57
2018-11-20T15:36:47.605Z,12.83
2018-11-20T15:58:04.509Z,13.37
2018-11-20T16:00:59.124Z,13.80
2018-11-20T16:03:42.481Z,17.70
2018-11-20T16:06:41.966Z,14.93
2018-11-20T16:12:09.101Z,14.17
2018-11-20T16:25:17.062Z,14.60
2018-11-20T16:27:50.347Z,14.07
2018-11-20T16:31:08.415Z,14.03
2018-11-20T16:34:10.279Z,13.63
2018-11-20T16:37:10.156Z,15.70
2018-11-20T16:42:15.507Z,14.03
2018-11-20T16:44:51.217Z,21.90
2018-11-20T16:47:58.958Z,22.47
2018-11-20T16:50:53.713Z,17.10
2018-11-20T16:58:48.440Z,16.40
2018-11-20T17:01:21.823Z,17.33
2018-11-20T17:03:55.135Z,16.97
2018-11-20T17:06:59.982Z,15.70
2018-11-20T17:09:52.151Z,19.03
2018-11-20T17:23:18.030Z,17.50
2018-11-20T17:31:20.546Z,18.87
2018-11-20T17:33:58.847Z,17.50
2018-11-20T17:39:34.587Z,17.33
2018-11-20T17:42:35.467Z,19.40
2018-11-20T17:45:28.971Z,18.17
2018-11-20T17:48:31.843Z,18.07
2018-11-20T17:51:04.600Z,18.43
2018-11-20T17:54:05.234Z,18.57
2018-11-20T17:56:52.686Z,19.90
2018-11-20T17:59:48.721Z,19.33
2018-11-20T18:03:04.084Z,20.07
2018-11-20T18:06:21.790Z,21.10
2018-11-20T18:09:24.199Z,20.30
2018-11-20T18:12:48.031Z,20.53
2018-11-20T18:15:53.302Z,20.67
2018-11-20T18:19:11.657Z,19.77
2018-11-20T18:22:31.912Z,20.30
2018-11-20T18:25:23.228Z,19.10
2018-11-20T18:28:11.583Z,19.80
2018-11-20T18:30:48.910Z,19.17
2018-11-20T18:33:35.794Z,18.40
2018-11-20T18:36:24.697Z,20.03
2018-11-20T18:39:35.188Z,19.00
2018-11-20T18:42:56.547Z,19.60
2018-11-20T18:46:02.967Z,20.13
2018-11-20T18:52:51.591Z,19.23
2018-11-20T18:55:43.793Z,21.43
2018-11-20T18:58:30.257Z,20.87
2018-11-20T19:01:28.782Z,22.20
2018-11-20T19:04:16.315Z,21.80
2018-11-20T19:07:06.291Z,21.60
2018-11-20T19:10:29.006Z,22.20
2018-11-20T19:13:25.026Z,20.37
2018-11-20T19:16:29.137Z,19.70
2018-11-20T19:19:43.614Z,26.33
2018-11-20T19:22:43.374Z,23.47
2018-11-20T19:25:36.804Z,22.70
2018-11-20T19:28:10.999Z,20.73
2018-11-20T19:31:02.570Z,22.13
2018-11-20T19:36:30.045Z,22.37
2018-11-20T19:41:58.596Z,22.10
2018-11-20T19:44:56.102Z,21.53
2018-11-20T19:47:44.685Z,22.57
2018-11-20T19:50:44.352Z,23.77
2018-11-20T19:53:31.687Z,21.90
2018-11-20T19:56:30.865Z,21.33
2018-11-20T19:59:27.146Z,23.27
2018-11-20T20:02:15.003Z,24.00
2018-11-20T20:05:18.780Z,25.63
2018-11-20T20:08:20.210Z,23.93
2018-11-20T20:11:08.053Z,23.50
2018-11-20T20:13:57.690Z,23.00
2018-11-20T20:16:58.266Z,22.63
2018-11-20T20:19:48.497Z,22.57
2018-11-20T20:22:38.914Z,23.97
2018-11-20T20:25:39.269Z,22.70
2018-11-20T20:28:39.245Z,23.20
2018-11-20T20:31:29.439Z,23.13
2018-11-20T20:34:17.734Z,23.63
2018-11-20T20:37:04.835Z,24.83
2018-11-20T20:40:11.317Z,23.77
2018-11-20T20:43:10.873Z,24.87
2018-11-20T20:46:16.583Z,24.87
2018-11-20T20:49:02.945Z,24.20
2018-11-20T20:52:01.285Z,24.60
2018-11-20T20:55:21.841Z,24.63
2018-11-20T20:58:11.881Z,24.57
2018-11-20T21:01:00.355Z,25.03
2018-11-20T21:03:57.483Z,24.10
2018-11-20T21:06:41.219Z,25.17
2018-11-20T21:09:41.827Z,24.23
2018-11-20T21:12:34.312Z,27.33
2018-11-20T21:15:21.197Z,25.73
2018-11-20T21:18:22.518Z,25.73
2018-11-20T21:21:22.710Z,24.10
2018-11-20T21:24:22.716Z,24.70
2018-11-20T21:27:17.634Z,26.57
2018-11-20T21:30:12.931Z,25.67
2018-11-20T21:33:05.359Z,24.30
2018-11-20T21:35:55.737Z,25.43
2018-11-20T21:38:55.909Z,24.40
2018-11-20T21:41:38.723Z,25.00
2018-11-20T21:44:38.891Z,25.73
2018-11-20T21:47:20.707Z,24.37
2018-11-20T21:50:09.391Z,24.73
2018-11-20T21:52:59.994Z,25.43
2018-11-20T21:56:01.261Z,23.63
2018-11-20T21:58:58.446Z,24.67
2018-11-20T22:01:56.451Z,24.77
2018-11-20T22:04:50.346Z,24.03
2018-11-20T22:07:47.783Z,23.03
2018-11-20T22:10:40.636Z,22.93
2018-11-20T22:13:34.376Z,23.73
2018-11-20T22:16:23.122Z,24.40
2018-11-20T22:19:27.438Z,23.77
2018-11-20T22:22:18.678Z,23.53
2018-11-20T22:25:13.149Z,22.80
2018-11-20T22:28:01.771Z,23.83
2018-11-20T22:30:53.421Z,23.50
2018-11-20T22:33:56.330Z,22.43
2018-11-20T22:36:42.740Z,23.97
2018-11-20T22:39:33.183Z,23.23
2018-11-20T22:42:27.914Z,23.03
2018-11-20T22:45:16.118Z,21.47
2018-11-20T22:48:02.799Z,22.83
2018-11-20T22:50:56.775Z,23.77
2018-11-20T22:53:47.831Z,22.43
2018-11-20T22:56:34.752Z,23.93
2018-11-20T22:59:21.071Z,24.30
2018-11-20T23:02:10.345Z,23.57
2018-11-20T23:05:11.857Z,25.03
2018-11-20T23:07:57.633Z,25.03
2018-11-20T23:10:30.644Z,23.07
2018-11-20T23:13:00.718Z,23.23
2018-11-20T23:15:31.674Z,23.40
2018-11-20T23:18:02.184Z,22.40
2018-11-20T23:20:33.777Z,22.37
2018-11-20T23:23:03.996Z,23.00
2018-11-20T23:25:36.306Z,22.73
2018-11-20T23:28:06.919Z,23.30
2018-11-20T23:30:41.804Z,23.47
2018-11-20T23:33:15.285Z,23.87
2018-11-20T23:35:46.794Z,24.30
2018-11-20T23:38:17.285Z,23.80
2018-11-20T23:40:46.994Z,24.20
2018-11-20T23:43:18.155Z,23.10
2018-11-20T23:45:48.165Z,22.17
2018-11-20T23:48:19.882Z,23.13
2018-11-20T23:50:50.396Z,24.50
2018-11-20T23:53:22.247Z,23.60
2018-11-20T23:55:52.345Z,24.97
2018-11-20T23:58:23.833Z,24.33
